Time;durP1;ratioP1;P1;durP2;ratioP2;P2;SDS_P1;SDS_P2;PMS_P1;PMS_P2;Temp;Humidity;BMP_temperature;BMP_pressure;BME280_temperature;BME280_humidity;BME280_pressure;Samples;Min_cycle;Max_cycle;Signal;HPM_P1;HPM_P2
2022/11/27 00:00:08;;;;;;;21.88;14.43;;;;;;;;;;5063457;28;20193;-67
2022/11/27 00:02:36;;;;;;;22.42;14.70;;;;;;;;;;5063615;28;20197;-67
2022/11/27 00:05:02;;;;;;;23.77;15.63;;;;;;;;;;5063470;28;20228;-67
2022/11/27 00:07:28;;;;;;;23.60;15.10;;;;;;;;;;5063213;28;20197;-67
2022/11/27 00:09:54;;;;;;;29.20;15.10;;;;;;;;;;5063123;28;20221;-67
2022/11/27 00:12:21;;;;;;;28.10;14.95;;;;;;;;;;5063086;28;20197;-67
2022/11/27 00:14:48;;;;;;;22.95;14.30;;;;;;;;;;5063132;28;20275;-67
2022/11/27 00:17:14;;;;;;;25.60;15.82;;;;;;;;;;5063092;28;20204;-67
2022/11/27 00:19:41;;;;;;;36.83;15.68;;;;;;;;;;5062878;28;20403;-67
2022/11/27 00:22:08;;;;;;;24.08;13.95;;;;;;;;;;5063167;28;20193;-67
2022/11/27 00:24:34;;;;;;;21.83;14.40;;;;;;;;;;5062997;28;20366;-67
2022/11/27 00:27:00;;;;;;;29.60;15.70;;;;;;;;;;5063073;28;20228;-67
2022/11/27 00:29:28;;;;;;;28.40;15.20;;;;;;;;;;5062715;28;20225;-67
2022/11/27 00:31:54;;;;;;;27.08;15.05;;;;;;;;;;5062873;28;20205;-67
2022/11/27 00:34:20;;;;;;;29.25;15.80;;;;;;;;;;5062815;28;20196;-67
2022/11/27 00:36:48;;;;;;;28.92;14.93;;;;;;;;;;5062789;28;20531;-67
2022/11/27 00:39:14;;;;;;;26.05;14.73;;;;;;;;;;5062454;28;20197;-67
2022/11/27 00:41:40;;;;;;;31.52;14.85;;;;;;;;;;5062913;28;20211;-67
2022/11/27 00:44:07;;;;;;;22.80;14.00;;;;;;;;;;5062869;28;20197;-68
2022/11/27 00:46:34;;;;;;;23.08;15.35;;;;;;;;;;5062794;28;20196;-67
2022/11/27 00:49:01;;;;;;;24.95;15.45;;;;;;;;;;5062294;28;20197;-67
2022/11/27 00:51:28;;;;;;;20.90;14.65;;;;;;;;;;5062542;28;20235;-67
2022/11/27 00:53:56;;;;;;;20.98;14.48;;;;;;;;;;5062530;28;20265;-67
2022/11/27 00:56:23;;;;;;;21.80;14.55;;;;;;;;;;5062628;28;20216;-67
2022/11/27 00:58:50;;;;;;;24.13;14.38;;;;;;;;;;5062200;28;20219;-67
2022/11/27 01:01:17;;;;;;;29.40;14.75;;;;;;;;;;5062672;28;20426;-67
2022/11/27 01:03:44;;;;;;;23.63;14.80;;;;;;;;;;5062351;28;20196;-67
2022/11/27 01:06:10;;;;;;;25.85;16.23;;;;;;;;;;5062146;28;20400;-67
2022/11/27 01:08:36;;;;;;;22.20;14.65;;;;;;;;;;5061956;28;20199;-67
2022/11/27 01:11:04;;;;;;;29.38;15.38;;;;;;;;;;5062232;28;20557;-67
2022/11/27 01:13:31;;;;;;;22.70;14.68;;;;;;;;;;5062332;28;20500;-67
2022/11/27 01:15:58;;;;;;;23.42;14.85;;;;;;;;;;5062024;28;20197;-67
2022/11/27 01:18:24;;;;;;;20.65;13.48;;;;;;;;;;5061856;28;20208;-67
2022/11/27 01:20:51;;;;;;;23.65;14.75;;;;;;;;;;5061996;28;20200;-67
2022/11/27 01:23:19;;;;;;;21.58;14.02;;;;;;;;;;5062306;28;20189;-67
2022/11/27 01:25:45;;;;;;;16.50;12.80;;;;;;;;;;5062026;28;20204;-67
2022/11/27 01:28:13;;;;;;;22.65;14.05;;;;;;;;;;5061812;28;20279;-67
2022/11/27 01:30:39;;;;;;;29.65;14.32;;;;;;;;;;5061893;28;20221;-67
2022/11/27 01:33:05;;;;;;;20.80;13.02;;;;;;;;;;5061867;28;20405;-67
2022/11/27 01:35:32;;;;;;;25.63;12.82;;;;;;;;;;5061856;28;20201;-67
2022/11/27 01:37:58;;;;;;;20.58;13.55;;;;;;;;;;5061640;28;20204;-67
2022/11/27 01:40:24;;;;;;;18.85;13.13;;;;;;;;;;5061846;28;20205;-67
2022/11/27 01:42:51;;;;;;;22.83;13.93;;;;;;;;;;5061732;28;20197;-67
2022/11/27 01:45:19;;;;;;;21.45;13.88;;;;;;;;;;5062256;28;20426;-67
2022/11/27 01:47:47;;;;;;;22.70;14.18;;;;;;;;;;5061521;28;20193;-67
2022/11/27 01:50:16;;;;;;;19.50;13.15;;;;;;;;;;5061548;28;20524;-67
2022/11/27 01:52:47;;;;;;;20.70;13.82;;;;;;;;;;5061854;28;20204;-67
2022/11/27 01:55:17;;;;;;;17.05;12.65;;;;;;;;;;5063642;28;20203;-67
2022/11/27 01:57:47;;;;;;;18.17;12.35;;;;;;;;;;5065563;28;20196;-67
2022/11/27 02:00:14;;;;;;;17.98;13.05;;;;;;;;;;5066177;28;20217;-67
2022/11/27 02:02:43;;;;;;;21.48;13.07;;;;;;;;;;5066095;28;20391;-67
2022/11/27 02:05:09;;;;;;;20.83;12.05;;;;;;;;;;5065786;28;20197;-67
2022/11/27 02:07:35;;;;;;;18.88;12.43;;;;;;;;;;5065616;28;20519;-67
2022/11/27 02:10:02;;;;;;;26.60;11.68;;;;;;;;;;5065836;28;20217;-67
2022/11/27 02:12:33;;;;;;;18.55;12.00;;;;;;;;;;5065457;28;20523;-67
2022/11/27 02:15:00;;;;;;;18.02;11.90;;;;;;;;;;5065527;28;20201;-67
2022/11/27 02:17:29;;;;;;;16.80;12.35;;;;;;;;;;5065193;28;20208;-67
2022/11/27 02:20:10;;;;;;;24.52;11.55;;;;;;;;;;5065066;28;20201;-67
2022/11/27 02:22:45;;;;;;;14.70;11.55;;;;;;;;;;5065415;28;20224;-67
2022/11/27 02:25:17;;;;;;;18.45;12.35;;;;;;;;;;5065739;28;20197;-67
2022/11/27 02:27:50;;;;;;;29.67;13.25;;;;;;;;;;5064933;28;20559;-67
2022/11/27 02:30:17;;;;;;;18.02;11.65;;;;;;;;;;5065366;28;20562;-67
2022/11/27 02:32:49;;;;;;;14.32;11.48;;;;;;;;;;5065408;28;20547;-66
2022/11/27 02:35:18;;;;;;;16.13;11.80;;;;;;;;;;5065331;28;20393;-66
2022/11/27 02:37:46;;;;;;;34.35;12.00;;;;;;;;;;5064862;28;20387;-66
2022/11/27 02:40:14;;;;;;;14.32;11.82;;;;;;;;;;5064832;28;20192;-66
2022/11/27 02:42:43;;;;;;;31.35;11.73;;;;;;;;;;5064947;28;20204;-66
2022/11/27 02:45:11;;;;;;;12.02;10.43;;;;;;;;;;5064959;28;20219;-66
2022/11/27 02:47:40;;;;;;;19.30;12.20;;;;;;;;;;5064677;28;20558;-67
2022/11/27 02:50:08;;;;;;;17.13;11.23;;;;;;;;;;5064771;28;20224;-67
2022/11/27 02:52:35;;;;;;;25.85;11.45;;;;;;;;;;5064842;28;20291;-67
2022/11/27 02:55:04;;;;;;;12.05;10.73;;;;;;;;;;5064572;28;20203;-67
2022/11/27 02:57:32;;;;;;;37.15;11.70;;;;;;;;;;5063967;28;20407;-67
2022/11/27 02:59:59;;;;;;;22.98;11.73;;;;;;;;;;5064366;28;20420;-67
2022/11/27 03:02:30;;;;;;;15.77;11.45;;;;;;;;;;5064422;28;20205;-67
2022/11/27 03:04:58;;;;;;;23.02;11.25;;;;;;;;;;5064677;28;20204;-67
2022/11/27 03:07:30;;;;;;;17.73;11.07;;;;;;;;;;5063313;28;20203;-67
2022/11/27 03:09:58;;;;;;;15.48;10.30;;;;;;;;;;5064287;28;20217;-67
2022/11/27 03:12:24;;;;;;;14.82;10.27;;;;;;;;;;5064764;28;20197;-67
2022/11/27 03:14:51;;;;;;;14.82;11.30;;;;;;;;;;5064228;28;20384;-67
2022/11/27 03:17:22;;;;;;;24.65;10.32;;;;;;;;;;5064519;28;20201;-67
2022/11/27 03:19:51;;;;;;;11.52;9.85;;;;;;;;;;5064041;28;20244;-67
2022/11/27 03:22:19;;;;;;;13.38;10.20;;;;;;;;;;5064253;28;20197;-67
2022/11/27 03:24:45;;;;;;;13.43;10.20;;;;;;;;;;5064083;28;20205;-67
2022/11/27 03:27:13;;;;;;;21.95;10.25;;;;;;;;;;5063967;28;20204;-67
2022/11/27 03:29:42;;;;;;;13.60;9.35;;;;;;;;;;5063994;28;20392;-67
2022/11/27 03:32:09;;;;;;;12.70;10.10;;;;;;;;;;5063984;28;20227;-67
2022/11/27 03:34:35;;;;;;;16.50;9.18;;;;;;;;;;5064054;28;20504;-67
2022/11/27 03:37:02;;;;;;;12.15;9.27;;;;;;;;;;5064017;28;20457;-67
2022/11/27 03:39:30;;;;;;;10.98;9.30;;;;;;;;;;5063683;28;20208;-67
2022/11/27 03:42:01;;;;;;;14.73;9.57;;;;;;;;;;5063778;28;20410;-67
2022/11/27 03:44:32;;;;;;;11.70;9.23;;;;;;;;;;5064009;28;20373;-67
2022/11/27 03:47:02;;;;;;;11.18;9.57;;;;;;;;;;5063781;28;20201;-67
2022/11/27 03:49:33;;;;;;;11.40;9.68;;;;;;;;;;5063574;28;20251;-67
2022/11/27 03:52:04;;;;;;;59.38;11.70;;;;;;;;;;5063625;28;20213;-67
2022/11/27 03:54:39;;;;;;;11.43;10.05;;;;;;;;;;5063813;28;20441;-67
2022/11/27 03:57:10;;;;;;;11.05;9.95;;;;;;;;;;5063709;28;20197;-67
2022/11/27 03:59:38;;;;;;;22.05;9.80;;;;;;;;;;5063367;28;20505;-67
2022/11/27 04:02:04;;;;;;;11.65;10.30;;;;;;;;;;5063484;28;20200;-67
2022/11/27 04:04:30;;;;;;;13.82;10.30;;;;;;;;;;5063414;28;20201;-67
2022/11/27 04:06:57;;;;;;;14.00;10.52;;;;;;;;;;5063098;28;20386;-67
2022/11/27 04:09:24;;;;;;;15.18;10.60;;;;;;;;;;5063134;28;20209;-67
2022/11/27 04:11:51;;;;;;;20.75;10.98;;;;;;;;;;5063296;28;20216;-67
2022/11/27 04:14:18;;;;;;;15.43;10.43;;;;;;;;;;5063288;28;20197;-67
2022/11/27 04:16:44;;;;;;;12.32;11.00;;;;;;;;;;5063324;28;20387;-67
2022/11/27 04:19:10;;;;;;;14.88;10.88;;;;;;;;;;5062421;28;20227;-67
2022/11/27 04:21:36;;;;;;;13.98;11.30;;;;;;;;;;5062987;28;20201;-67
2022/11/27 04:24:03;;;;;;;13.10;9.80;;;;;;;;;;5063171;28;20201;-67
2022/11/27 04:26:29;;;;;;;12.00;10.18;;;;;;;;;;5063101;28;20201;-67
2022/11/27 04:28:57;;;;;;;12.52;9.13;;;;;;;;;;5062738;28;20217;-67
2022/11/27 04:31:23;;;;;;;12.52;10.55;;;;;;;;;;5062740;28;20228;-66
2022/11/27 04:33:49;;;;;;;13.65;9.57;;;;;;;;;;5062702;28;20197;-66
2022/11/27 04:36:16;;;;;;;13.77;9.82;;;;;;;;;;5062717;28;20197;-66
2022/11/27 04:38:42;;;;;;;13.07;9.63;;;;;;;;;;5062601;28;20197;-66
2022/11/27 04:41:08;;;;;;;23.05;10.10;;;;;;;;;;5062741;28;20193;-66
2022/11/27 04:43:34;;;;;;;37.22;10.40;;;;;;;;;;5062737;28;20279;-66
2022/11/27 04:46:02;;;;;;;12.02;9.63;;;;;;;;;;5062603;28;20204;-66
2022/11/27 04:48:28;;;;;;;10.55;9.50;;;;;;;;;;5062299;28;20209;-66
2022/11/27 04:50:54;;;;;;;16.38;12.48;;;;;;;;;;5062516;28;20601;-66
2022/11/27 04:53:21;;;;;;;102.05;11.35;;;;;;;;;;5062580;28;20203;-66
2022/11/27 04:55:47;;;;;;;17.13;9.52;;;;;;;;;;5062495;28;20197;-66
2022/11/27 04:58:13;;;;;;;13.55;10.00;;;;;;;;;;5062186;28;20197;-66
2022/11/27 05:00:39;;;;;;;32.30;10.30;;;;;;;;;;5062461;28;20512;-66
2022/11/27 05:03:07;;;;;;;12.10;10.05;;;;;;;;;;5062263;28;20505;-66
2022/11/27 05:05:34;;;;;;;14.18;9.52;;;;;;;;;;5062445;28;20205;-66
2022/11/27 05:08:00;;;;;;;17.98;10.57;;;;;;;;;;5062400;28;20197;-66
2022/11/27 05:10:26;;;;;;;13.60;9.82;;;;;;;;;;5062301;28;20417;-66
2022/11/27 05:12:52;;;;;;;10.90;9.18;;;;;;;;;;5062226;28;20367;-66
2022/11/27 05:15:19;;;;;;;10.75;9.45;;;;;;;;;;5062114;28;20219;-66
2022/11/27 05:17:45;;;;;;;16.77;9.00;;;;;;;;;;5061802;28;20203;-66
2022/11/27 05:20:12;;;;;;;19.55;9.32;;;;;;;;;;5061924;28;20205;-66
2022/11/27 05:22:39;;;;;;;24.00;9.18;;;;;;;;;;5062153;28;20389;-66
2022/11/27 05:25:05;;;;;;;29.75;8.98;;;;;;;;;;5062006;28;20205;-66
2022/11/27 05:27:32;;;;;;;13.32;8.48;;;;;;;;;;5061739;28;20225;-66
2022/11/27 05:29:58;;;;;;;11.63;8.52;;;;;;;;;;5061028;28;20205;-66
2022/11/27 05:32:24;;;;;;;25.70;9.40;;;;;;;;;;5061691;28;20464;-66
2022/11/27 05:34:50;;;;;;;9.00;8.13;;;;;;;;;;5061965;28;20220;-66
2022/11/27 05:37:18;;;;;;;13.13;8.23;;;;;;;;;;5061935;28;20196;-67
2022/11/27 05:39:44;;;;;;;10.73;9.07;;;;;;;;;;5061629;28;20212;-67
2022/11/27 05:42:11;;;;;;;16.10;8.75;;;;;;;;;;5061707;28;20488;-67
2022/11/27 05:44:37;;;;;;;8.90;7.70;;;;;;;;;;5061760;28;20500;-67
2022/11/27 05:47:03;;;;;;;36.70;9.38;;;;;;;;;;5061613;28;20212;-67
2022/11/27 05:49:29;;;;;;;10.57;8.43;;;;;;;;;;5061405;28;20204;-67
2022/11/27 05:51:56;;;;;;;12.48;8.20;;;;;;;;;;5061720;28;20543;-67
2022/11/27 05:54:23;;;;;;;14.52;8.25;;;;;;;;;;5061750;28;20193;-67
2022/11/27 05:56:49;;;;;;;54.00;9.23;;;;;;;;;;5061668;28;20204;-67
2022/11/27 05:59:16;;;;;;;61.40;8.48;;;;;;;;;;5061223;28;20204;-67
2022/11/27 06:01:42;;;;;;;8.98;8.07;;;;;;;;;;5061675;28;20209;-67
2022/11/27 06:04:08;;;;;;;10.45;8.68;;;;;;;;;;5061730;28;20219;-67
2022/11/27 06:06:35;;;;;;;9.77;8.85;;;;;;;;;;5062050;28;20387;-67
2022/11/27 06:09:01;;;;;;;16.33;8.38;;;;;;;;;;5061394;28;20219;-67
2022/11/27 06:11:28;;;;;;;9.93;8.75;;;;;;;;;;5061338;28;20213;-67
2022/11/27 06:13:55;;;;;;;23.88;9.02;;;;;;;;;;5061514;28;20204;-67
2022/11/27 06:16:22;;;;;;;9.25;7.85;;;;;;;;;;5061725;28;20189;-67
2022/11/27 06:18:49;;;;;;;8.77;7.93;;;;;;;;;;5061170;28;20209;-67
2022/11/27 06:21:16;;;;;;;8.85;7.95;;;;;;;;;;5061526;28;20239;-67
2022/11/27 06:23:42;;;;;;;10.82;7.65;;;;;;;;;;5061294;28;20197;-67
2022/11/27 06:26:13;;;;;;;11.18;8.23;;;;;;;;;;5061697;28;20205;-68
2022/11/27 06:28:41;;;;;;;18.13;8.93;;;;;;;;;;5060899;28;20221;-68
2022/11/27 06:31:08;;;;;;;9.75;8.75;;;;;;;;;;5061432;28;20389;-67
2022/11/27 06:33:34;;;;;;;9.07;8.13;;;;;;;;;;5061383;28;20204;-68
2022/11/27 06:36:01;;;;;;;8.77;7.97;;;;;;;;;;5061355;28;20504;-68
2022/11/27 06:38:27;;;;;;;8.68;7.78;;;;;;;;;;5061002;28;20251;-68
2022/11/27 06:40:53;;;;;;;10.25;8.40;;;;;;;;;;5062349;28;20189;-68
2022/11/27 06:43:19;;;;;;;8.85;7.95;;;;;;;;;;5064933;28;20523;-67
2022/11/27 06:45:55;;;;;;;10.65;8.10;;;;;;;;;;5064875;28;20204;-67
2022/11/27 06:48:21;;;;;;;8.68;7.88;;;;;;;;;;5064755;28;20419;-67
2022/11/27 06:50:48;;;;;;;8.57;7.78;;;;;;;;;;5064697;28;20269;-67
2022/11/27 06:53:14;;;;;;;9.82;7.45;;;;;;;;;;5064844;28;20204;-67
2022/11/27 06:55:43;;;;;;;11.05;9.43;;;;;;;;;;5064698;28;20504;-67
2022/11/27 06:58:10;;;;;;;11.45;8.32;;;;;;;;;;5064729;28;20233;-67
2022/11/27 07:00:36;;;;;;;8.43;7.25;;;;;;;;;;5064789;28;20497;-67
2022/11/27 07:03:03;;;;;;;7.72;7.10;;;;;;;;;;5064581;28;20203;-67
2022/11/27 07:05:30;;;;;;;8.25;7.45;;;;;;;;;;5064545;28;20504;-67
2022/11/27 07:07:56;;;;;;;11.13;8.35;;;;;;;;;;5064699;28;20197;-67
2022/11/27 07:10:22;;;;;;;9.13;7.43;;;;;;;;;;5064414;28;20500;-67
2022/11/27 07:12:49;;;;;;;9.98;7.05;;;;;;;;;;5064589;28;20224;-67
2022/11/27 07:15:15;;;;;;;7.47;6.88;;;;;;;;;;5064545;28;20197;-67
2022/11/27 07:17:41;;;;;;;21.73;7.45;;;;;;;;;;5064198;28;20205;-67
2022/11/27 07:20:09;;;;;;;8.38;7.20;;;;;;;;;;5064309;28;20209;-67
2022/11/27 07:22:36;;;;;;;10.02;7.82;;;;;;;;;;5064201;28;20197;-67
2022/11/27 07:25:03;;;;;;;10.30;8.48;;;;;;;;;;5064279;28;20205;-67
2022/11/27 07:27:29;;;;;;;13.07;7.60;;;;;;;;;;5064477;28;20413;-68
2022/11/27 07:29:56;;;;;;;8.35;7.60;;;;;;;;;;5064073;28;20201;-68
2022/11/27 07:32:22;;;;;;;9.35;8.38;;;;;;;;;;5064034;28;20232;-68
2022/11/27 07:34:48;;;;;;;8.68;7.82;;;;;;;;;;5064133;28;20372;-68
2022/11/27 07:37:16;;;;;;;9.05;8.18;;;;;;;;;;5063945;28;20207;-68
2022/11/27 07:39:42;;;;;;;9.88;8.88;;;;;;;;;;5063908;28;20201;-68
2022/11/27 07:42:08;;;;;;;9.55;7.72;;;;;;;;;;5064043;28;20208;-68
2022/11/27 07:44:34;;;;;;;8.32;7.55;;;;;;;;;;5063771;28;20209;-67
2022/11/27 07:47:01;;;;;;;8.45;7.65;;;;;;;;;;5063862;28;20504;-67
2022/11/27 07:49:27;;;;;;;7.40;6.70;;;;;;;;;;5063647;28;20197;-67
2022/11/27 07:51:53;;;;;;;10.57;7.18;;;;;;;;;;5063256;28;20224;-67
2022/11/27 07:54:21;;;;;;;7.95;7.15;;;;;;;;;;5063629;28;20201;-67
2022/11/27 07:56:47;;;;;;;8.43;7.50;;;;;;;;;;5063801;28;20201;-67
2022/11/27 07:59:13;;;;;;;9.23;6.75;;;;;;;;;;5063579;28;20197;-67
2022/11/27 08:01:40;;;;;;;8.07;7.28;;;;;;;;;;5063937;28;20572;-67
2022/11/27 08:04:06;;;;;;;13.85;7.47;;;;;;;;;;5064209;28;20197;-68
2022/11/27 08:06:32;;;;;;;8.10;7.32;;;;;;;;;;5063458;28;20381;-67
2022/11/27 08:08:59;;;;;;;7.45;6.85;;;;;;;;;;5063456;28;20268;-67
2022/11/27 08:11:28;;;;;;;11.35;7.63;;;;;;;;;;5063428;28;20217;-67
2022/11/27 08:13:56;;;;;;;9.38;8.30;;;;;;;;;;5063481;28;20496;-67
2022/11/27 08:16:22;;;;;;;12.23;8.23;;;;;;;;;;5063359;28;20204;-67
2022/11/27 08:18:48;;;;;;;10.40;8.85;;;;;;;;;;5063020;28;20539;-67
2022/11/27 08:21:14;;;;;;;11.57;8.43;;;;;;;;;;5063467;28;20205;-67
2022/11/27 08:23:41;;;;;;;9.18;8.27;;;;;;;;;;5063481;28;20474;-67
2022/11/27 08:26:08;;;;;;;11.43;8.32;;;;;;;;;;5063371;28;20404;-67
2022/11/27 08:28:35;;;;;;;11.02;8.38;;;;;;;;;;5063349;28;20408;-67
2022/11/27 08:31:03;;;;;;;8.95;8.00;;;;;;;;;;5063040;28;20209;-67
2022/11/27 08:33:29;;;;;;;9.48;7.50;;;;;;;;;;5063070;28;20271;-67
2022/11/27 08:35:55;;;;;;;10.55;7.90;;;;;;;;;;5063041;28;20204;-67
2022/11/27 08:38:22;;;;;;;8.25;7.45;;;;;;;;;;5062784;28;20216;-67
2022/11/27 08:40:53;;;;;;;8.85;7.95;;;;;;;;;;5063085;28;20219;-67
2022/11/27 08:43:19;;;;;;;14.80;7.95;;;;;;;;;;5063152;28;20193;-67
2022/11/27 08:45:47;;;;;;;8.25;7.43;;;;;;;;;;5062831;28;20733;-67
2022/11/27 08:48:13;;;;;;;12.43;6.40;;;;;;;;;;5063086;28;20197;-67
2022/11/27 08:50:40;;;;;;;9.32;6.70;;;;;;;;;;5063017;28;20516;-67
2022/11/27 08:53:06;;;;;;;9.75;7.15;;;;;;;;;;5062980;28;20224;-67
2022/11/27 08:55:32;;;;;;;8.48;7.57;;;;;;;;;;5062728;28;20197;-67
2022/11/27 08:57:58;;;;;;;7.93;6.88;;;;;;;;;;5054741;28;20190;-68
2022/11/27 09:00:25;;;;;;;9.15;7.15;;;;;;;;;;5048727;28;20209;-67
2022/11/27 09:02:53;;;;;;;7.95;7.18;;;;;;;;;;5054943;28;20206;-67
2022/11/27 09:05:19;;;;;;;10.07;8.20;;;;;;;;;;5040481;28;20244;-67
2022/11/27 09:07:45;;;;;;;8.75;7.95;;;;;;;;;;5042501;28;20197;-67
2022/11/27 09:10:11;;;;;;;10.20;7.78;;;;;;;;;;5042645;28;20434;-67
2022/11/27 09:12:38;;;;;;;8.90;8.00;;;;;;;;;;5042310;28;20213;-67
2022/11/27 09:15:05;;;;;;;9.45;8.48;;;;;;;;;;5042841;28;20194;-67
2022/11/27 09:17:31;;;;;;;10.13;8.38;;;;;;;;;;5042560;28;20392;-67
2022/11/27 09:19:58;;;;;;;8.93;8.13;;;;;;;;;;5042154;28;20211;-67
2022/11/27 09:22:25;;;;;;;8.55;7.75;;;;;;;;;;5042463;28;20198;-67
2022/11/27 09:24:51;;;;;;;8.02;7.20;;;;;;;;;;5042316;28;20407;-67
2022/11/27 09:27:17;;;;;;;7.50;6.80;;;;;;;;;;5042155;28;20205;-67
2022/11/27 09:29:43;;;;;;;8.02;7.22;;;;;;;;;;5041888;28;20205;-67
2022/11/27 09:32:10;;;;;;;7.03;6.43;;;;;;;;;;5042282;28;20221;-67
2022/11/27 09:34:36;;;;;;;6.80;6.20;;;;;;;;;;5042208;28;20198;-67
2022/11/27 09:37:05;;;;;;;6.72;6.13;;;;;;;;;;5042123;28;20213;-67
2022/11/27 09:39:32;;;;;;;7.22;6.65;;;;;;;;;;5041902;28;20205;-67
2022/11/27 09:41:59;;;;;;;8.75;7.70;;;;;;;;;;5041935;28;20193;-67
2022/11/27 09:44:29;;;;;;;11.00;8.63;;;;;;;;;;5041897;28;20204;-67
2022/11/27 09:46:56;;;;;;;8.30;7.53;;;;;;;;;;5042097;28;20198;-67
2022/11/27 09:49:24;;;;;;;8.90;8.02;;;;;;;;;;5041758;28;20528;-67
2022/11/27 09:51:53;;;;;;;10.77;9.43;;;;;;;;;;5041820;28;20217;-67
2022/11/27 09:54:24;;;;;;;8.90;8.00;;;;;;;;;;5041908;28;20198;-67
2022/11/27 09:56:51;;;;;;;8.93;8.02;;;;;;;;;;5041740;28;20236;-67
2022/11/27 09:59:19;;;;;;;9.18;8.38;;;;;;;;;;5041577;28;20220;-67
2022/11/27 10:01:45;;;;;;;9.88;8.88;;;;;;;;;;5041965;28;20394;-67
2022/11/27 10:04:12;;;;;;;8.73;7.93;;;;;;;;;;5041969;28;20498;-67
2022/11/27 10:06:45;;;;;;;8.35;7.65;;;;;;;;;;5041679;28;20197;-67
2022/11/27 10:09:16;;;;;;;8.75;7.95;;;;;;;;;;5042051;28;20387;-67
2022/11/27 10:11:47;;;;;;;8.77;7.90;;;;;;;;;;5041612;28;20198;-67
2022/11/27 10:14:21;;;;;;;8.40;7.50;;;;;;;;;;5041542;28;20432;-67
2022/11/27 10:16:50;;;;;;;8.75;7.95;;;;;;;;;;5044102;28;20206;-67
2022/11/27 10:19:22;;;;;;;9.07;8.18;;;;;;;;;;5045167;28;20206;-67
2022/11/27 10:21:51;;;;;;;9.02;8.00;;;;;;;;;;5045380;28;20528;-68
2022/11/27 10:24:21;;;;;;;9.48;8.57;;;;;;;;;;5045559;28;20201;-68
2022/11/27 10:26:50;;;;;;;9.45;8.55;;;;;;;;;;5045535;28;20643;-68
2022/11/27 10:29:25;;;;;;;9.23;8.30;;;;;;;;;;5044817;28;20218;-68
2022/11/27 10:31:53;;;;;;;13.35;9.00;;;;;;;;;;5044957;28;20227;-68
2022/11/27 10:34:23;;;;;;;9.93;8.95;;;;;;;;;;5045038;28;20204;-68
2022/11/27 10:36:50;;;;;;;11.63;10.52;;;;;;;;;;5045182;28;20204;-68
2022/11/27 10:39:18;;;;;;;12.90;11.50;;;;;;;;;;5044902;28;20198;-68
2022/11/27 10:41:50;;;;;;;13.35;10.15;;;;;;;;;;5045022;28;20465;-68
2022/11/27 10:44:22;;;;;;;13.15;11.20;;;;;;;;;;5044960;28;20205;-68
2022/11/27 10:46:50;;;;;;;12.88;11.20;;;;;;;;;;5044957;28;20210;-68
2022/11/27 10:49:16;;;;;;;11.23;10.05;;;;;;;;;;5044711;28;20213;-68
2022/11/27 10:51:43;;;;;;;12.82;10.50;;;;;;;;;;5045037;28;20202;-68
2022/11/27 10:54:11;;;;;;;11.25;10.13;;;;;;;;;;5045066;28;20198;-68
2022/11/27 10:56:46;;;;;;;11.88;10.27;;;;;;;;;;5044881;28;20197;-68
2022/11/27 10:59:15;;;;;;;11.07;9.80;;;;;;;;;;5044678;28;20396;-68
2022/11/27 11:01:43;;;;;;;11.45;10.13;;;;;;;;;;5045056;28;20224;-68
2022/11/27 11:04:10;;;;;;;10.60;9.50;;;;;;;;;;5044958;28;20197;-68
2022/11/27 11:06:39;;;;;;;11.13;9.85;;;;;;;;;;5044669;28;20205;-68
2022/11/27 11:09:06;;;;;;;10.30;9.32;;;;;;;;;;5044647;28;20513;-68
2022/11/27 11:11:32;;;;;;;11.38;10.18;;;;;;;;;;5044750;28;20435;-68
2022/11/27 11:13:59;;;;;;;11.55;10.35;;;;;;;;;;5044448;28;20218;-68
2022/11/27 11:16:26;;;;;;;11.60;9.88;;;;;;;;;;5044778;28;20197;-68
2022/11/27 11:18:54;;;;;;;11.02;9.93;;;;;;;;;;5044371;28;20216;-68
2022/11/27 11:21:24;;;;;;;12.85;11.07;;;;;;;;;;5044650;28;20394;-68
2022/11/27 11:23:54;;;;;;;11.13;9.80;;;;;;;;;;5044548;28;20525;-68
2022/11/27 11:26:25;;;;;;;8.98;8.10;;;;;;;;;;5044328;28;20198;-68
2022/11/27 11:28:53;;;;;;;8.82;7.93;;;;;;;;;;5043269;28;20218;-68
2022/11/27 11:31:21;;;;;;;9.40;8.50;;;;;;;;;;5044489;28;20505;-69
2022/11/27 11:33:49;;;;;;;9.73;8.80;;;;;;;;;;5044143;28;20217;-68
2022/11/27 11:36:17;;;;;;;9.15;8.30;;;;;;;;;;5044112;28;20205;-68
2022/11/27 11:38:45;;;;;;;9.88;8.98;;;;;;;;;;5043905;28;20198;-68
2022/11/27 11:41:12;;;;;;;9.93;8.98;;;;;;;;;;5044262;28;20209;-68
2022/11/27 11:43:39;;;;;;;10.48;9.38;;;;;;;;;;5044200;28;20269;-68
2022/11/27 11:46:07;;;;;;;11.77;10.50;;;;;;;;;;5044119;28;20198;-68
2022/11/27 11:48:34;;;;;;;10.75;9.75;;;;;;;;;;5043943;28;20387;-68
2022/11/27 11:51:01;;;;;;;10.32;9.27;;;;;;;;;;5043951;28;20527;-68
2022/11/27 11:53:33;;;;;;;10.88;9.40;;;;;;;;;;5043756;28;20230;-68
2022/11/27 11:56:02;;;;;;;12.05;10.25;;;;;;;;;;5043931;28;20198;-68
2022/11/27 11:58:47;;;;;;;11.57;10.38;;;;;;;;;;5043884;28;20523;-68
2022/11/27 12:01:22;;;;;;;12.98;9.95;;;;;;;;;;5043631;28;20198;-68
2022/11/27 12:03:56;;;;;;;10.80;9.70;;;;;;;;;;5043622;28;20193;-68
2022/11/27 12:06:28;;;;;;;12.82;11.70;;;;;;;;;;5043852;28;20198;-68
2022/11/27 12:09:02;;;;;;;11.32;9.43;;;;;;;;;;5043284;28;20197;-68
2022/11/27 12:11:33;;;;;;;12.65;9.43;;;;;;;;;;5054032;28;20216;-68
2022/11/27 12:14:10;;;;;;;8.90;8.10;;;;;;;;;;5059033;28;20228;-68
2022/11/27 12:16:44;;;;;;;9.50;8.52;;;;;;;;;;5060403;28;20432;-68
2022/11/27 12:19:26;;;;;;;9.80;8.88;;;;;;;;;;5060256;28;20223;-68
2022/11/27 12:21:57;;;;;;;9.48;8.48;;;;;;;;;;5060831;28;20378;-68
2022/11/27 12:24:33;;;;;;;12.40;10.10;;;;;;;;;;5060494;28;20197;-68
2022/11/27 12:27:07;;;;;;;9.63;8.68;;;;;;;;;;5055363;28;20217;-68
2022/11/27 12:29:44;;;;;;;11.52;8.55;;;;;;;;;;5056646;28;20217;-68
2022/11/27 12:32:25;;;;;;;9.50;8.57;;;;;;;;;;5048797;28;20220;-68
2022/11/27 12:34:57;;;;;;;9.35;8.45;;;;;;;;;;5055463;28;20209;-68
2022/11/27 12:37:34;;;;;;;9.35;8.45;;;;;;;;;;5057025;28;20232;-68
2022/11/27 12:40:12;;;;;;;11.98;9.27;;;;;;;;;;5057008;28;20209;-68
2022/11/27 12:42:42;;;;;;;10.10;8.60;;;;;;;;;;5057094;28;20377;-68
2022/11/27 12:45:15;;;;;;;11.27;9.10;;;;;;;;;;5057086;28;20205;-68
2022/11/27 12:47:42;;;;;;;10.13;9.23;;;;;;;;;;5056837;28;20208;-68
2022/11/27 12:50:13;;;;;;;9.60;8.68;;;;;;;;;;5037069;28;20217;-68
2022/11/27 12:52:40;;;;;;;11.07;9.10;;;;;;;;;;5037209;28;20236;-68
2022/11/27 12:55:11;;;;;;;9.68;8.63;;;;;;;;;;5037364;28;20209;-68
2022/11/27 12:57:40;;;;;;;10.57;8.77;;;;;;;;;;5036888;28;20216;-68
2022/11/27 13:00:07;;;;;;;10.50;8.88;;;;;;;;;;5052811;28;20209;-68
2022/11/27 13:02:35;;;;;;;9.85;8.85;;;;;;;;;;5057303;28;20236;-68
2022/11/27 13:05:03;;;;;;;10.90;9.40;;;;;;;;;;5057204;28;20521;-68
2022/11/27 13:07:37;;;;;;;10.07;8.98;;;;;;;;;;5056968;28;20209;-68
2022/11/27 13:10:09;;;;;;;9.45;8.40;;;;;;;;;;5056769;28;20207;-68
2022/11/27 13:12:39;;;;;;;9.73;8.82;;;;;;;;;;5056810;28;20209;-68
2022/11/27 13:15:08;;;;;;;9.63;8.63;;;;;;;;;;5056795;28;20440;-68
2022/11/27 13:17:37;;;;;;;9.90;8.77;;;;;;;;;;5056492;28;20209;-68
2022/11/27 13:20:05;;;;;;;12.60;9.02;;;;;;;;;;5056433;28;20217;-68
2022/11/27 13:22:34;;;;;;;9.88;8.80;;;;;;;;;;5056777;28;20209;-68
2022/11/27 13:25:01;;;;;;;10.05;9.05;;;;;;;;;;5056893;28;20279;-68
2022/11/27 13:27:29;;;;;;;10.27;8.95;;;;;;;;;;5056332;28;20453;-68
2022/11/27 13:29:58;;;;;;;9.80;8.80;;;;;;;;;;5051717;28;20221;-68
2022/11/27 13:32:26;;;;;;;9.88;8.88;;;;;;;;;;5036670;28;20229;-68
2022/11/27 13:34:55;;;;;;;10.18;9.05;;;;;;;;;;5039559;28;20458;-69
2022/11/27 13:37:26;;;;;;;9.70;8.73;;;;;;;;;;5042169;28;20201;-68
2022/11/27 13:39:58;;;;;;;9.95;8.95;;;;;;;;;;5041818;28;20202;-68
2022/11/27 13:42:25;;;;;;;12.98;9.18;;;;;;;;;;5042023;28;20197;-68
2022/11/27 13:44:53;;;;;;;41.03;23.98;;;;;;;;;;5042266;28;20208;-68
2022/11/27 13:47:22;;;;;;;14.15;10.80;;;;;;;;;;5042104;28;20513;-68
2022/11/27 13:49:57;;;;;;;11.82;9.32;;;;;;;;;;5042159;28;20205;-68
2022/11/27 13:52:24;;;;;;;13.88;9.20;;;;;;;;;;5048262;28;20212;-68
2022/11/27 13:54:54;;;;;;;12.73;9.70;;;;;;;;;;5048857;28;20221;-68
2022/11/27 13:57:21;;;;;;;12.18;9.68;;;;;;;;;;5048807;28;20198;-68
2022/11/27 13:59:57;;;;;;;12.23;9.90;;;;;;;;;;5048383;28;20201;-68
2022/11/27 14:02:25;;;;;;;12.38;8.65;;;;;;;;;;5048384;28;20205;-68
2022/11/27 14:04:52;;;;;;;10.75;8.68;;;;;;;;;;5048271;28;20216;-68
2022/11/27 14:07:19;;;;;;;13.07;9.32;;;;;;;;;;5048543;28;20205;-68
2022/11/27 14:09:46;;;;;;;12.75;9.52;;;;;;;;;;5048167;28;20205;-68
2022/11/27 14:12:18;;;;;;;10.68;9.32;;;;;;;;;;5048517;28;20272;-68
2022/11/27 14:14:45;;;;;;;11.25;9.93;;;;;;;;;;5048477;28;20556;-68
2022/11/27 14:17:22;;;;;;;15.35;10.95;;;;;;;;;;5048151;28;20404;-68
2022/11/27 14:19:58;;;;;;;13.45;10.18;;;;;;;;;;5048082;28;20206;-68
2022/11/27 14:22:32;;;;;;;11.68;9.43;;;;;;;;;;5048420;28;20213;-68
2022/11/27 14:24:58;;;;;;;15.32;10.75;;;;;;;;;;5048302;28;20200;-68
2022/11/27 14:27:25;;;;;;;13.70;9.80;;;;;;;;;;5048519;28;20233;-68
2022/11/27 14:29:51;;;;;;;12.27;9.75;;;;;;;;;;5047940;28;20496;-68
2022/11/27 14:32:18;;;;;;;12.85;9.85;;;;;;;;;;5048304;28;20244;-68